createdAt,value
2019-01-24T00:02:05.984Z,26.97
2019-01-24T00:04:35.874Z,28.83
2019-01-24T00:07:05.837Z,28.33
2019-01-24T00:09:35.675Z,27.27
2019-01-24T00:12:05.610Z,27.93
2019-01-24T00:14:35.736Z,29.07
2019-01-24T00:17:05.659Z,27.83
2019-01-24T00:19:35.517Z,29.63
2019-01-24T00:22:05.863Z,30.20
2019-01-24T00:24:35.781Z,28.93
2019-01-24T00:27:05.743Z,28.47
2019-01-24T00:29:35.609Z,28.80
2019-01-24T00:32:05.543Z,28.87
2019-01-24T00:34:35.418Z,28.93
2019-01-24T00:37:05.814Z,28.50
2019-01-24T00:39:35.639Z,27.60
2019-01-24T00:42:05.666Z,28.10
2019-01-24T00:44:35.746Z,26.97
2019-01-24T00:47:05.854Z,28.03
2019-01-24T00:49:35.721Z,29.37
2019-01-24T00:52:06.512Z,28.23
2019-01-24T00:54:36.357Z,28.67
2019-01-24T00:57:06.412Z,28.43
2019-01-24T00:59:36.535Z,28.60
2019-01-24T01:02:06.514Z,27.70
2019-01-24T01:04:36.409Z,29.40
2019-01-24T01:07:07.101Z,27.40
2019-01-24T01:09:37.002Z,26.67
2019-01-24T01:12:07.512Z,28.57
2019-01-24T01:14:37.377Z,27.53
2019-01-24T01:17:07.384Z,27.60
2019-01-24T01:19:37.464Z,28.70
2019-01-24T01:22:07.511Z,28.30
2019-01-24T01:24:37.757Z,30.43
2019-01-24T01:27:07.920Z,30.37
2019-01-24T01:29:37.762Z,27.60
2019-01-24T01:32:07.675Z,29.20
2019-01-24T01:34:37.544Z,30.60
2019-01-24T01:37:07.596Z,27.57
2019-01-24T01:39:37.473Z,28.60
2019-01-24T01:42:07.424Z,31.73
2019-01-24T01:44:37.284Z,30.17
2019-01-24T01:47:07.232Z,29.77
2019-01-24T01:49:37.365Z,30.97
2019-01-24T01:52:07.249Z,31.87
2019-01-24T01:54:37.118Z,27.47
2019-01-24T01:57:07.051Z,31.40
2019-01-24T01:59:36.909Z,30.53
2019-01-24T02:02:06.914Z,29.33
2019-01-24T02:04:42.715Z,31.93
2019-01-24T02:07:08.952Z,29.87
2019-01-24T02:09:38.831Z,30.93
2019-01-24T02:12:08.721Z,27.87
2019-01-24T02:14:38.596Z,30.77
2019-01-24T02:17:08.449Z,31.20
2019-01-24T02:19:38.310Z,27.87
2019-01-24T02:22:48.185Z,31.20
2019-01-24T02:25:18.523Z,29.30
2019-01-24T02:27:48.638Z,29.70
2019-01-24T02:30:25.687Z,30.27
2019-01-24T02:32:55.927Z,29.60
2019-01-24T02:35:26.149Z,28.90
2019-01-24T02:37:56.351Z,30.07
2019-01-24T02:40:26.295Z,31.00
2019-01-24T02:42:56.200Z,29.57
2019-01-24T02:45:26.749Z,29.13
2019-01-24T02:47:56.698Z,31.47
2019-01-24T02:50:26.606Z,31.17
2019-01-24T02:52:56.466Z,30.27
2019-01-24T02:55:26.661Z,30.90
2019-01-24T02:57:56.590Z,29.67
2019-01-24T03:00:27.083Z,31.57
2019-01-24T03:02:56.998Z,30.20
2019-01-24T03:05:26.979Z,30.77
2019-01-24T03:07:56.956Z,29.47
2019-01-24T03:10:27.153Z,33.27
2019-01-24T03:12:57.131Z,29.50
2019-01-24T03:15:27.313Z,30.10
2019-01-24T03:17:57.197Z,29.70
2019-01-24T03:20:27.316Z,30.67
2019-01-24T03:22:57.440Z,29.80
2019-01-24T03:25:27.657Z,31.33
2019-01-24T03:27:57.808Z,29.20
2019-01-24T03:30:27.927Z,31.40
2019-01-24T03:32:58.577Z,30.70
2019-01-24T03:35:28.714Z,31.07
2019-01-24T03:37:58.892Z,30.70
2019-01-24T03:40:28.769Z,28.67
2019-01-24T03:42:59.155Z,28.60
2019-01-24T03:45:29.029Z,29.80
2019-01-24T03:47:58.896Z,29.13
2019-01-24T03:50:29.661Z,32.60
2019-01-24T03:53:00.019Z,30.30
2019-01-24T03:55:30.003Z,31.10
2019-01-24T03:57:59.927Z,31.33
2019-01-24T04:00:30.105Z,29.33
2019-01-24T04:03:00.244Z,31.57
2019-01-24T04:05:30.149Z,30.47
2019-01-24T04:08:00.539Z,31.40
2019-01-24T04:10:30.458Z,29.97
2019-01-24T04:13:00.360Z,32.10
2019-01-24T04:15:30.251Z,30.77
2019-01-24T04:18:00.438Z,29.13
2019-01-24T04:20:30.533Z,31.20
2019-01-24T04:23:00.770Z,29.60
2019-01-24T04:25:30.683Z,29.77
2019-01-24T04:28:00.564Z,31.93
2019-01-24T04:30:30.791Z,31.40
2019-01-24T04:33:00.665Z,30.60
2019-01-24T04:35:30.820Z,29.60
2019-01-24T04:38:00.690Z,30.07
2019-01-24T04:40:30.926Z,29.07
2019-01-24T04:43:00.812Z,29.70
2019-01-24T04:45:31.040Z,32.67
2019-01-24T04:48:00.986Z,27.40
2019-01-24T04:50:30.975Z,28.37
2019-01-24T04:53:01.427Z,29.50
2019-01-24T04:55:31.605Z,30.90
2019-01-24T04:58:01.830Z,28.67
2019-01-24T05:00:32.719Z,30.33
2019-01-24T05:03:02.677Z,29.43
2019-01-24T05:05:32.870Z,31.53
2019-01-24T05:08:03.076Z,27.83
2019-01-24T05:10:33.109Z,29.90
2019-01-24T05:13:03.545Z,27.60
2019-01-24T05:15:36.593Z,26.87
2019-01-24T05:18:06.856Z,26.80
2019-01-24T05:20:37.089Z,28.73
2019-01-24T05:23:08.721Z,28.40
2019-01-24T05:25:41.599Z,29.80
2019-01-24T05:28:18.492Z,28.50
2019-01-24T05:30:50.153Z,27.87
2019-01-24T05:33:25.164Z,28.30
2019-01-24T05:35:55.545Z,27.93
2019-01-24T05:38:25.734Z,26.47
2019-01-24T05:40:55.975Z,29.20
2019-01-24T05:43:25.912Z,28.63
2019-01-24T05:45:55.869Z,29.37
2019-01-24T05:48:26.577Z,28.90
2019-01-24T05:50:57.058Z,27.30
2019-01-24T05:53:27.567Z,26.00
2019-01-24T05:55:57.575Z,27.07
2019-01-24T05:58:27.743Z,26.70
2019-01-24T06:00:58.373Z,26.90
2019-01-24T06:03:28.432Z,28.57
2019-01-24T06:05:58.924Z,26.93
2019-01-24T06:08:29.116Z,27.43
2019-01-24T06:10:59.345Z,29.50
2019-01-24T06:13:29.276Z,29.30
2019-01-24T06:15:59.231Z,30.23
2019-01-24T06:18:29.253Z,29.13
2019-01-24T06:20:59.431Z,27.30
2019-01-24T06:23:30.158Z,26.63
2019-01-24T06:26:00.306Z,28.53
2019-01-24T06:28:30.521Z,27.10
2019-01-24T06:31:00.706Z,27.00
2019-01-24T06:33:31.153Z,28.97
2019-01-24T06:36:01.314Z,27.97
2019-01-24T06:38:31.551Z,29.00
2019-01-24T06:41:01.492Z,28.27
2019-01-24T06:43:31.447Z,28.20
2019-01-24T06:46:01.915Z,27.03
2019-01-24T06:48:32.136Z,25.03
2019-01-24T06:51:02.387Z,28.17
2019-01-24T06:53:32.401Z,26.40
2019-01-24T06:56:02.574Z,27.40
2019-01-24T06:58:33.057Z,27.20
2019-01-24T07:01:03.495Z,25.37
2019-01-24T07:03:33.439Z,25.07
2019-01-24T07:06:04.038Z,28.10
2019-01-24T07:08:34.455Z,26.47
2019-01-24T07:11:04.557Z,27.23
2019-01-24T07:13:35.016Z,27.13
2019-01-24T07:16:05.025Z,26.90
2019-01-24T07:18:35.240Z,25.57
2019-01-24T07:21:05.365Z,27.47
2019-01-24T07:23:35.477Z,26.37
2019-01-24T07:26:05.845Z,29.40
2019-01-24T07:28:35.795Z,26.93
2019-01-24T07:31:05.800Z,27.73
2019-01-24T07:33:36.003Z,26.97
2019-01-24T07:36:06.414Z,27.07
2019-01-24T07:38:36.368Z,28.73
2019-01-24T07:41:06.434Z,29.23
2019-01-24T07:43:36.638Z,27.63
2019-01-24T07:46:07.257Z,28.40
2019-01-24T07:48:37.222Z,26.60
2019-01-24T07:51:07.505Z,26.80
2019-01-24T07:53:37.949Z,26.20
2019-01-24T07:56:08.278Z,28.10
2019-01-24T07:58:38.228Z,27.00
2019-01-24T08:01:08.210Z,28.17
2019-01-24T08:03:38.162Z,26.77
2019-01-24T08:06:09.211Z,27.03
2019-01-24T08:08:39.378Z,27.40
2019-01-24T08:11:10.173Z,27.60
2019-01-24T08:13:40.386Z,27.23
2019-01-24T08:16:10.315Z,26.77
2019-01-24T08:18:40.246Z,27.50
2019-01-24T08:21:10.185Z,27.60
2019-01-24T08:23:40.125Z,27.37
2019-01-24T08:26:10.667Z,28.90
2019-01-24T08:28:40.861Z,26.20
2019-01-24T08:31:10.811Z,23.90
2019-01-24T08:33:41.362Z,26.67
2019-01-24T08:36:15.530Z,25.77
2019-01-24T08:38:43.537Z,25.90
2019-01-24T08:41:13.794Z,27.20
2019-01-24T08:43:44.212Z,25.93
2019-01-24T08:46:14.509Z,26.60
2019-01-24T08:48:44.682Z,24.80
2019-01-24T08:51:14.647Z,26.00
2019-01-24T08:53:45.185Z,26.60
2019-01-24T08:56:15.597Z,28.73
2019-01-24T08:58:45.546Z,27.63
2019-01-24T09:01:15.714Z,28.17
2019-01-24T09:03:45.655Z,26.53
2019-01-24T09:06:22.383Z,28.73
2019-01-24T09:08:47.855Z,26.60
2019-01-24T09:11:18.096Z,26.00
2019-01-24T09:13:48.382Z,27.73
2019-01-24T09:16:18.303Z,24.80
2019-01-24T09:18:48.523Z,26.90
2019-01-24T09:21:18.552Z,26.50
2019-01-24T09:23:48.512Z,26.27
2019-01-24T09:26:18.430Z,27.40
2019-01-24T09:28:48.378Z,28.40
2019-01-24T09:31:18.568Z,27.47
2019-01-24T09:33:48.957Z,27.60
2019-01-24T09:36:19.347Z,25.83
2019-01-24T09:38:49.588Z,26.10
2019-01-24T09:41:19.531Z,26.30
2019-01-24T09:43:49.717Z,27.33
2019-01-24T09:46:19.895Z,27.03
2019-01-24T09:48:50.185Z,26.33
2019-01-24T09:51:20.163Z,25.23
2019-01-24T09:53:50.714Z,24.13
2019-01-24T09:56:20.800Z,25.10
2019-01-24T09:58:51.466Z,25.93
2019-01-24T10:01:21.421Z,25.20
2019-01-24T10:03:51.532Z,25.33
2019-01-24T10:06:21.547Z,25.07
2019-01-24T10:08:51.710Z,27.23
2019-01-24T10:11:23.544Z,26.40
2019-01-24T10:13:54.344Z,26.33
2019-01-24T10:16:24.371Z,25.07
2019-01-24T10:18:54.276Z,26.53
2019-01-24T10:21:24.326Z,25.63
2019-01-24T10:23:54.345Z,27.03
2019-01-24T10:26:24.699Z,27.77
2019-01-24T10:28:55.038Z,28.07
2019-01-24T10:31:25.274Z,26.47
2019-01-24T10:33:55.238Z,25.70
2019-01-24T10:36:25.239Z,26.43
2019-01-24T10:38:55.140Z,29.03
2019-01-24T10:41:25.138Z,26.70
2019-01-24T10:43:55.067Z,29.50
2019-01-24T10:46:25.009Z,27.40
2019-01-24T10:48:54.958Z,27.67
2019-01-24T10:51:25.138Z,29.37
2019-01-24T10:53:55.131Z,26.77
2019-01-24T10:56:25.095Z,31.53
2019-01-24T10:58:55.129Z,31.07
2019-01-24T11:01:25.426Z,28.93
2019-01-24T11:03:56.199Z,30.70
2019-01-24T11:06:26.634Z,29.73
2019-01-24T11:08:56.863Z,28.70
2019-01-24T11:11:27.104Z,30.10
2019-01-24T11:13:57.239Z,29.40
2019-01-24T11:16:27.212Z,28.90
2019-01-24T11:18:57.161Z,29.70
2019-01-24T11:21:27.194Z,30.43
2019-01-24T11:23:57.204Z,31.90
2019-01-24T11:26:27.450Z,30.40
2019-01-24T11:28:57.642Z,29.87
2019-01-24T11:31:27.862Z,30.37
2019-01-24T11:33:57.924Z,27.77
2019-01-24T11:36:28.157Z,26.67
2019-01-24T11:38:58.114Z,28.50
2019-01-24T11:41:28.284Z,27.77
2019-01-24T11:43:58.522Z,29.63
2019-01-24T11:46:28.742Z,27.57
2019-01-24T11:48:59.833Z,28.73
2019-01-24T11:51:29.781Z,30.17
2019-01-24T11:53:59.763Z,30.30
2019-01-24T11:56:29.931Z,29.00
2019-01-24T11:59:00.361Z,30.83
2019-01-24T12:01:30.597Z,29.97
2019-01-24T12:04:01.028Z,28.67
2019-01-24T12:06:31.281Z,34.07
2019-01-24T12:09:01.470Z,29.90
2019-01-24T12:11:31.662Z,27.97
2019-01-24T12:14:01.654Z,31.20
2019-01-24T12:16:31.887Z,30.20
2019-01-24T12:19:02.171Z,27.30
2019-01-24T12:21:32.095Z,28.57
2019-01-24T12:24:02.283Z,28.77
2019-01-24T12:26:32.177Z,29.20
2019-01-24T12:29:02.514Z,29.17
2019-01-24T12:31:32.674Z,29.07
2019-01-24T12:34:03.135Z,29.80
2019-01-24T12:36:33.112Z,29.50
2019-01-24T12:39:03.556Z,30.20
2019-01-24T12:41:33.501Z,32.63
2019-01-24T12:44:03.650Z,31.40
2019-01-24T12:46:33.593Z,33.50
2019-01-24T12:49:03.849Z,27.93
2019-01-24T12:51:33.906Z,27.87
2019-01-24T12:54:03.940Z,27.50
2019-01-24T12:56:34.127Z,28.93
2019-01-24T12:59:04.182Z,29.83
2019-01-24T13:01:34.031Z,28.70
2019-01-24T13:04:04.186Z,28.50
2019-01-24T13:06:34.066Z,28.90
2019-01-24T13:09:05.804Z,26.77
2019-01-24T13:11:36.033Z,29.30
2019-01-24T13:14:06.145Z,32.97
2019-01-24T13:16:36.024Z,31.87
2019-01-24T13:19:06.062Z,32.00
2019-01-24T13:21:35.946Z,29.40
2019-01-24T13:24:06.297Z,28.37
2019-01-24T13:26:36.410Z,27.07
2019-01-24T13:29:06.392Z,27.10
2019-01-24T13:31:36.275Z,27.30
2019-01-24T13:34:06.223Z,31.67
2019-01-24T13:36:36.102Z,32.57
2019-01-24T13:39:11.132Z,32.73
2019-01-24T13:41:42.606Z,31.37
2019-01-24T13:44:12.663Z,30.00
2019-01-24T13:46:42.764Z,32.40
2019-01-24T13:49:12.875Z,34.00
2019-01-24T13:51:42.794Z,30.90
2019-01-24T13:54:12.696Z,33.80
2019-01-24T13:56:42.703Z,32.37
2019-01-24T13:59:12.654Z,30.40
2019-01-24T14:01:43.172Z,28.80
2019-01-24T14:04:25.849Z,29.20
2019-01-24T14:06:56.192Z,27.30
2019-01-24T14:09:26.110Z,29.97
2019-01-24T14:11:56.270Z,28.07
2019-01-24T14:14:26.399Z,30.43
2019-01-24T14:16:56.355Z,30.40
2019-01-24T14:19:26.255Z,31.00
2019-01-24T14:21:56.383Z,29.67
2019-01-24T14:24:26.763Z,31.33
2019-01-24T14:26:57.233Z,33.70
2019-01-24T14:29:27.139Z,34.00
2019-01-24T14:31:57.064Z,30.17
2019-01-24T14:34:27.243Z,32.33
2019-01-24T14:36:57.256Z,32.67
2019-01-24T14:39:27.938Z,32.17
2019-01-24T14:41:57.837Z,30.43
2019-01-24T14:44:27.727Z,29.10
2019-01-24T14:46:57.847Z,29.80
2019-01-24T14:49:28.150Z,33.23
2019-01-24T14:51:58.266Z,32.50
2019-01-24T14:54:28.202Z,29.20
2019-01-24T14:56:58.160Z,31.43
2019-01-24T14:59:28.092Z,30.37
2019-01-24T15:01:57.994Z,30.50
2019-01-24T15:04:27.957Z,33.63
2019-01-24T15:06:57.970Z,31.60
2019-01-24T15:09:28.170Z,30.07
2019-01-24T15:11:58.912Z,32.77
2019-01-24T15:14:28.803Z,31.93
2019-01-24T15:16:58.712Z,29.80
2019-01-24T15:19:28.588Z,29.57
2019-01-24T15:21:58.744Z,28.97
2019-01-24T15:24:28.667Z,29.03
2019-01-24T15:26:59.095Z,29.40
2019-01-24T15:29:29.280Z,29.70
2019-01-24T15:31:59.484Z,29.30
2019-01-24T15:34:29.413Z,28.30
2019-01-24T15:36:59.529Z,27.70
2019-01-24T15:39:29.440Z,28.63
2019-01-24T15:41:59.449Z,27.70
2019-01-24T15:44:29.642Z,29.77
2019-01-24T15:46:59.612Z,30.03
2019-01-24T15:49:29.554Z,29.53
2019-01-24T15:51:59.714Z,29.73
2019-01-24T15:54:30.111Z,31.07
2019-01-24T15:57:00.049Z,31.00
2019-01-24T15:59:29.936Z,29.37
2019-01-24T16:01:59.873Z,29.50
2019-01-24T16:04:29.796Z,30.50
2019-01-24T16:06:59.745Z,31.20
2019-01-24T16:09:29.910Z,30.47
2019-01-24T16:12:00.101Z,30.17
2019-01-24T16:14:30.307Z,28.20
2019-01-24T16:17:00.590Z,28.33
2019-01-24T16:19:30.548Z,28.67
2019-01-24T16:22:00.905Z,28.57
2019-01-24T16:24:30.916Z,28.57
2019-01-24T16:27:01.488Z,30.00
2019-01-24T16:29:31.398Z,29.07
2019-01-24T16:32:01.658Z,30.03
2019-01-24T16:34:32.106Z,29.73
2019-01-24T16:37:02.093Z,31.43
2019-01-24T16:39:32.213Z,31.27
2019-01-24T16:42:02.401Z,32.80
2019-01-24T16:44:32.352Z,36.60
2019-01-24T16:47:02.269Z,31.77
2019-01-24T16:49:32.344Z,35.53
2019-01-24T16:52:02.260Z,31.57
2019-01-24T16:54:32.847Z,34.40
2019-01-24T16:57:07.619Z,32.90
2019-01-24T16:59:38.086Z,32.13
2019-01-24T17:02:08.145Z,32.83
2019-01-24T17:04:38.073Z,34.30
2019-01-24T17:07:07.973Z,34.13
2019-01-24T17:09:38.147Z,32.60
2019-01-24T17:12:08.618Z,34.10
2019-01-24T17:14:38.905Z,34.77
2019-01-24T17:17:09.335Z,30.80
2019-01-24T17:19:39.594Z,31.70
2019-01-24T17:22:09.845Z,33.43
2019-01-24T17:24:40.094Z,33.57
2019-01-24T17:27:10.208Z,33.37
2019-01-24T17:29:40.148Z,34.77
2019-01-24T17:32:10.139Z,31.80
2019-01-24T17:34:40.132Z,32.70
2019-01-24T17:37:10.236Z,29.73
2019-01-24T17:39:40.541Z,35.37
2019-01-24T17:42:10.462Z,32.63
2019-01-24T17:44:41.031Z,31.20
2019-01-24T17:47:11.233Z,32.47
2019-01-24T17:49:41.572Z,31.70
2019-01-24T17:52:11.694Z,29.50
2019-01-24T17:54:41.941Z,33.53
2019-01-24T17:57:14.206Z,30.10
2019-01-24T17:59:44.157Z,32.43
2019-01-24T18:02:14.264Z,31.33
2019-01-24T18:04:44.271Z,30.20
2019-01-24T18:07:14.226Z,32.57
2019-01-24T18:09:44.251Z,31.20
2019-01-24T18:12:14.599Z,33.20
2019-01-24T18:14:44.557Z,33.10
2019-01-24T18:17:14.834Z,31.27
2019-01-24T18:19:44.924Z,32.80
2019-01-24T18:22:15.145Z,31.77
2019-01-24T18:24:45.227Z,32.27
2019-01-24T18:27:15.525Z,32.60
2019-01-24T18:29:46.003Z,30.67
2019-01-24T18:32:16.085Z,33.20
2019-01-24T18:34:46.053Z,33.90
2019-01-24T18:37:16.496Z,31.33
2019-01-24T18:39:46.751Z,31.53
2019-01-24T18:42:17.008Z,31.57
2019-01-24T18:44:47.128Z,33.50
2019-01-24T18:47:17.362Z,31.40
2019-01-24T18:49:47.459Z,32.73
2019-01-24T18:52:17.793Z,31.23
2019-01-24T18:54:48.126Z,32.67
2019-01-24T18:57:18.130Z,35.23
2019-01-24T18:59:48.371Z,34.20
2019-01-24T19:02:18.440Z,33.47
2019-01-24T19:04:48.983Z,34.30
2019-01-24T19:07:19.220Z,32.70
2019-01-24T19:09:49.339Z,34.67
2019-01-24T19:12:19.332Z,33.90
2019-01-24T19:14:49.800Z,32.60
2019-01-24T19:17:19.775Z,34.23
2019-01-24T19:19:49.726Z,34.27
2019-01-24T19:22:19.657Z,34.70
2019-01-24T19:24:49.868Z,35.37
2019-01-24T19:27:20.020Z,33.40
2019-01-24T19:29:49.980Z,33.37
2019-01-24T19:32:20.198Z,31.87
2019-01-24T19:34:50.408Z,31.13
2019-01-24T19:37:20.381Z,34.73
2019-01-24T19:39:50.340Z,32.80
2019-01-24T19:42:20.633Z,34.40
2019-01-24T19:44:50.614Z,33.27
2019-01-24T19:47:20.627Z,34.30
2019-01-24T19:49:50.853Z,33.67
2019-01-24T19:52:20.826Z,32.60
2019-01-24T19:54:51.076Z,32.00
2019-01-24T19:57:21.966Z,30.40
2019-01-24T19:59:52.185Z,33.83
2019-01-24T20:02:22.178Z,34.33
2019-01-24T20:04:52.691Z,33.60
2019-01-24T20:07:23.101Z,35.70
2019-01-24T20:09:53.263Z,33.20
2019-01-24T20:12:23.541Z,35.20
2019-01-24T20:14:53.547Z,32.93
2019-01-24T20:17:24.017Z,32.23
2019-01-24T20:19:54.313Z,34.10
2019-01-24T20:22:24.447Z,33.83
2019-01-24T20:24:54.804Z,36.00
2019-01-24T20:27:26.000Z,32.73
2019-01-24T20:29:56.208Z,34.27
2019-01-24T20:32:27.419Z,33.83
2019-01-24T20:34:57.920Z,38.80
2019-01-24T20:37:28.061Z,33.73
2019-01-24T20:39:59.893Z,36.47
2019-01-24T20:42:29.931Z,33.47
2019-01-24T20:45:00.209Z,34.10
2019-01-24T20:47:30.746Z,34.10
2019-01-24T20:50:01.194Z,32.63
2019-01-24T20:52:31.759Z,34.43
2019-01-24T20:55:01.978Z,34.13
2019-01-24T20:57:31.945Z,34.10
2019-01-24T21:00:01.892Z,33.53
2019-01-24T21:02:32.339Z,33.17
2019-01-24T21:05:02.630Z,32.40
2019-01-24T21:07:32.814Z,35.77
2019-01-24T21:10:02.739Z,35.97
2019-01-24T21:12:33.271Z,35.50
2019-01-24T21:15:03.300Z,32.47
2019-01-24T21:17:33.361Z,36.03
2019-01-24T21:20:03.300Z,35.57
2019-01-24T21:22:33.569Z,33.67
2019-01-24T21:25:03.643Z,32.80
2019-01-24T21:27:33.679Z,33.10
2019-01-24T21:30:03.818Z,30.20
2019-01-24T21:32:33.748Z,32.23
2019-01-24T21:35:04.022Z,31.13
2019-01-24T21:37:35.099Z,32.03
2019-01-24T21:40:08.278Z,32.90
2019-01-24T21:42:38.205Z,32.47
2019-01-24T21:45:10.367Z,35.37
2019-01-24T21:47:40.608Z,34.63
2019-01-24T21:50:14.081Z,34.23
2019-01-24T21:52:44.316Z,35.63
2019-01-24T21:55:15.416Z,33.13
2019-01-24T21:57:45.511Z,34.80
2019-01-24T22:00:18.512Z,32.90
2019-01-24T22:02:48.799Z,33.70
2019-01-24T22:05:19.711Z,33.83
2019-01-24T22:07:50.175Z,33.93
2019-01-24T22:10:26.750Z,33.97
2019-01-24T22:12:56.907Z,34.23
2019-01-24T22:15:29.720Z,33.33
2019-01-24T22:18:00.422Z,34.23
2019-01-24T22:20:30.975Z,35.33
2019-01-24T22:23:01.178Z,32.10
2019-01-24T22:25:33.919Z,33.90
2019-01-24T22:28:04.254Z,34.97
2019-01-24T22:30:40.811Z,30.97
2019-01-24T22:33:11.301Z,32.37
2019-01-24T22:35:41.416Z,32.33
2019-01-24T22:38:11.799Z,33.23
2019-01-24T22:40:41.746Z,31.77
2019-01-24T22:43:11.948Z,32.87
2019-01-24T22:45:42.144Z,34.30
2019-01-24T22:48:12.165Z,33.63
2019-01-24T22:50:42.545Z,34.70
2019-01-24T22:53:13.027Z,32.60
2019-01-24T22:55:42.991Z,35.07
2019-01-24T22:58:13.328Z,33.90
2019-01-24T23:01:31.184Z,33.10
2019-01-24T23:04:08.198Z,36.23
2019-01-24T23:06:38.563Z,35.63
2019-01-24T23:09:11.757Z,33.33
2019-01-24T23:11:42.068Z,34.10
2019-01-24T23:14:13.430Z,33.70
2019-01-24T23:16:43.435Z,33.47
2019-01-24T23:19:13.517Z,34.50
2019-01-24T23:21:43.681Z,36.70
2019-01-24T23:24:13.591Z,34.27
2019-01-24T23:26:43.478Z,37.30
2019-01-24T23:29:13.330Z,35.60
2019-01-24T23:31:43.757Z,35.07
2019-01-24T23:34:13.910Z,35.97
2019-01-24T23:36:43.731Z,34.40
2019-01-24T23:39:13.773Z,36.33
2019-01-24T23:41:44.148Z,34.87
2019-01-24T23:44:14.062Z,35.93
2019-01-24T23:46:43.977Z,38.30
2019-01-24T23:49:13.877Z,34.97
2019-01-24T23:51:43.748Z,35.93
2019-01-24T23:54:13.897Z,36.67
2019-01-24T23:56:43.803Z,36.00
2019-01-24T23:59:13.719Z,33.17
